Moab, UT

3:13 PM MDT op 27 augustus 2014 (GMT -0600)
Canon Vista | Change Station
CLOSE
Current Station
Persoonlijk weerstation
Location: Moab, UT
Geometrische hoogte: 4183 ft
Nabije weerstations
Actief advies: Special Statement Actieve aankondiging: Public Information Statement

Hoogte 4183 ft 38.56 °N, 109.53 °W | Updated 24 seconds ago

Merendeels bewolkt
Merendeels bewolkt
76.6 °F
Voelt als 78 °F
N
3.0
Wind Variabel Wind van west
Gusts 0.0 mijl/u

Vandaag
Hoog -- | Laag -- °F
--% Kans op neerslag
Gisteren
Hoog -- | Laag -- °F
Precip. -- inches
6:42 AM 7:55 PM
Wassende halvemaan, 5% visible
Druk 30.05 inches
Zicht 10.0 mijlen
Wolken Gering 12000 ft
Warmteindex 78 °F
Dauwpunt 54 °F
Vochtigheid 45%
Neerslag 0.07 inches
Dikte sneeuw Niet beschikbaar.
UV 9 van de 12
Pollen 6.00 van de 12
Luchtkwaliteit Niet beschikbaar.
Flu Activity Niet beschikbaar.
METAR KCNY 272053Z AUTO 32011KT 290V360 10SM FEW120 24/07 A3019 RMK AO2 SLP175 T02390072 58013

More Conditions Fewer Conditions

Druk 30.05 inches
Zicht 10.0 mijlen
Wolken Gering 12000 ft
Warmteindex 78 °F
Dauwpunt 54 °F
Vochtigheid 45%
Neerslag 0.07 inches
Dikte sneeuw Niet beschikbaar.
UV 9 van de 12
Pollen 6.00 van de 12
Luchtkwaliteit Niet beschikbaar.
Flu Activity Niet beschikbaar.
METAR KCNY 272053Z AUTO 32011KT 290V360 10SM FEW120 24/07 A3019 RMK AO2 SLP175 T02390072 58013

More Conditions Fewer Conditions

10-Day Weather Forecast

Almanac

Astronomie

Aug. 27, 2014 Opkomst Ondergang
Werkelijke tijd 6:42 AM MDT 7:55 PM MDT
Burgerlijke schemering 6:15 AM MDT 8:22 PM MDT
Nautische schemering 5:42 AM MDT 8:55 PM MDT
Astronomische schemering 5:08 AM MDT 9:29 PM MDT
Maan 8:40 AM MDT 8:51 PM MDT
Golflengte van het zichtbare licht 14h 07m
Daglengte
13h 12m
Tomorrow will be 2m 21s shorter.
Wassende halvemaan, 5% of the Moon is Illuminated
Vandaag
Wassende halvemaan
sep 2
Eerste kwartier
sep 8
Volle maan
sep 15
Laatste kwartier
sep 24
Nieuw

Extremen vandaag

State Highs State Lows

Community

WunderPhotos

Upload Photos

1,747,789 foto’s ge-upload!

Nearby

Dikte sneeuw

Station Depth Geometrische hoogte
Gooseberry R.S. 0 in 7920 ft
Clear Creek #2 0 in 8300 ft
Box Creek 0 in 9800 ft
Mosby Mountain 1 in 9500 ft
Strawberry Divide 0 in 8400 ft

Aardbevingen

Stad Distance Mag. Time & Date
No recent earthquake activity has been reported nearby.
Minimum magnitude displayed is 2.5.

Watertemperatuur langs de kust

Plaats Temperatuur
Geen meldingen van stations

Nabije weerstations